sensor_id;sensor_type;location;lat;lon;timestamp;temperature;humidity
69628;DHT22;56850;51.984;5.088;2023-02-01T00:00:31;6.80;68.60
69628;DHT22;56850;51.984;5.088;2023-02-01T00:03:00;6.80;68.80
69628;DHT22;56850;51.984;5.088;2023-02-01T00:05:27;6.90;68.80
69628;DHT22;56850;51.984;5.088;2023-02-01T00:07:54;6.90;68.80
69628;DHT22;56850;51.984;5.088;2023-02-01T00:10:24;6.90;68.70
69628;DHT22;56850;51.984;5.088;2023-02-01T00:12:51;6.90;68.90
69628;DHT22;56850;51.984;5.088;2023-02-01T00:15:17;6.90;68.90
69628;DHT22;56850;51.984;5.088;2023-02-01T00:17:44;7.00;68.90
69628;DHT22;56850;51.984;5.088;2023-02-01T00:20:13;7.00;68.90
69628;DHT22;56850;51.984;5.088;2023-02-01T00:22:39;7.00;68.90
69628;DHT22;56850;51.984;5.088;2023-02-01T00:25:07;7.00;68.80
69628;DHT22;56850;51.984;5.088;2023-02-01T00:27:34;7.10;68.90
69628;DHT22;56850;51.984;5.088;2023-02-01T00:30:01;7.00;68.90
69628;DHT22;56850;51.984;5.088;2023-02-01T00:32:28;7.10;68.90
69628;DHT22;56850;51.984;5.088;2023-02-01T00:34:54;7.10;68.90
69628;DHT22;56850;51.984;5.088;2023-02-01T00:37:21;7.10;69.10
69628;DHT22;56850;51.984;5.088;2023-02-01T00:39:49;7.10;69.30
69628;DHT22;56850;51.984;5.088;2023-02-01T00:42:17;7.10;69.30
69628;DHT22;56850;51.984;5.088;2023-02-01T00:44:45;7.10;69.20
69628;DHT22;56850;51.984;5.088;2023-02-01T00:47:12;7.10;69.30
69628;DHT22;56850;51.984;5.088;2023-02-01T00:49:39;7.20;69.30
69628;DHT22;56850;51.984;5.088;2023-02-01T00:52:05;7.20;69.30
69628;DHT22;56850;51.984;5.088;2023-02-01T00:54:33;7.20;69.30
69628;DHT22;56850;51.984;5.088;2023-02-01T00:57:00;7.20;69.20
69628;DHT22;56850;51.984;5.088;2023-02-01T00:59:27;7.20;69.20
69628;DHT22;56850;51.984;5.088;2023-02-01T01:01:54;7.20;69.10
69628;DHT22;56850;51.984;5.088;2023-02-01T01:04:21;7.20;69.10
69628;DHT22;56850;51.984;5.088;2023-02-01T01:06:48;7.20;69.00
69628;DHT22;56850;51.984;5.088;2023-02-01T01:09:15;7.30;69.00
69628;DHT22;56850;51.984;5.088;2023-02-01T01:11:42;7.30;68.90
69628;DHT22;56850;51.984;5.088;2023-02-01T01:14:10;7.30;68.90
69628;DHT22;56850;51.984;5.088;2023-02-01T01:16:37;7.30;68.80
69628;DHT22;56850;51.984;5.088;2023-02-01T01:19:04;7.30;68.60
69628;DHT22;56850;51.984;5.088;2023-02-01T01:21:31;7.30;68.60
69628;DHT22;56850;51.984;5.088;2023-02-01T01:23:59;7.30;68.60
69628;DHT22;56850;51.984;5.088;2023-02-01T01:26:27;7.30;68.40
69628;DHT22;56850;51.984;5.088;2023-02-01T01:28:56;7.30;68.50
69628;DHT22;56850;51.984;5.088;2023-02-01T01:31:23;7.40;68.40
69628;DHT22;56850;51.984;5.088;2023-02-01T01:33:53;7.40;68.30
69628;DHT22;56850;51.984;5.088;2023-02-01T01:36:20;7.40;68.20
69628;DHT22;56850;51.984;5.088;2023-02-01T01:38:47;7.40;68.20
69628;DHT22;56850;51.984;5.088;2023-02-01T01:41:17;7.40;68.20
69628;DHT22;56850;51.984;5.088;2023-02-01T01:44:03;7.40;68.20
69628;DHT22;56850;51.984;5.088;2023-02-01T01:46:37;7.40;68.20
69628;DHT22;56850;51.984;5.088;2023-02-01T01:49:13;7.30;68.20
69628;DHT22;56850;51.984;5.088;2023-02-01T01:51:45;7.30;68.30
69628;DHT22;56850;51.984;5.088;2023-02-01T01:54:20;7.30;68.40
69628;DHT22;56850;51.984;5.088;2023-02-01T01:56:51;7.30;68.40
69628;DHT22;56850;51.984;5.088;2023-02-01T01:59:24;7.40;68.40
69628;DHT22;56850;51.984;5.088;2023-02-01T02:01:51;7.30;68.40
69628;DHT22;56850;51.984;5.088;2023-02-01T02:04:19;7.40;68.50
69628;DHT22;56850;51.984;5.088;2023-02-01T02:07:00;7.40;68.50
69628;DHT22;56850;51.984;5.088;2023-02-01T02:09:29;7.40;68.60
69628;DHT22;56850;51.984;5.088;2023-02-01T02:11:56;7.40;68.80
69628;DHT22;56850;51.984;5.088;2023-02-01T02:14:25;7.40;68.80
69628;DHT22;56850;51.984;5.088;2023-02-01T02:25:22;7.50;69.20
69628;DHT22;56850;51.984;5.088;2023-02-01T02:31:16;7.50;69.60
69628;DHT22;56850;51.984;5.088;2023-02-01T02:33:57;7.60;69.90
69628;DHT22;56850;51.984;5.088;2023-02-01T02:36:51;7.60;69.90
69628;DHT22;56850;51.984;5.088;2023-02-01T02:39:36;7.60;70.00
69628;DHT22;56850;51.984;5.088;2023-02-01T02:42:13;7.60;70.00
69628;DHT22;56850;51.984;5.088;2023-02-01T02:48:06;7.70;70.00
69628;DHT22;56850;51.984;5.088;2023-02-01T02:50:49;7.70;70.00
69628;DHT22;56850;51.984;5.088;2023-02-01T02:53:43;7.70;69.90
69628;DHT22;56850;51.984;5.088;2023-02-01T02:56:33;7.70;70.00
69628;DHT22;56850;51.984;5.088;2023-02-01T02:59:21;7.70;70.10
69628;DHT22;56850;51.984;5.088;2023-02-01T03:02:08;7.70;70.10
69628;DHT22;56850;51.984;5.088;2023-02-01T03:04:55;7.70;70.10
69628;DHT22;56850;51.984;5.088;2023-02-01T03:10:42;7.80;70.00
69628;DHT22;56850;51.984;5.088;2023-02-01T03:13:32;7.80;70.00
69628;DHT22;56850;51.984;5.088;2023-02-01T03:18:35;7.80;69.90
69628;DHT22;56850;51.984;5.088;2023-02-01T03:21:10;7.80;69.80
69628;DHT22;56850;51.984;5.088;2023-02-01T03:23:40;7.80;69.80
69628;DHT22;56850;51.984;5.088;2023-02-01T03:26:11;7.80;69.70
69628;DHT22;56850;51.984;5.088;2023-02-01T03:28:50;7.80;69.60
69628;DHT22;56850;51.984;5.088;2023-02-01T03:31:19;7.80;69.70
69628;DHT22;56850;51.984;5.088;2023-02-01T03:33:46;7.80;69.50
69628;DHT22;56850;51.984;5.088;2023-02-01T03:36:30;7.80;69.50
69628;DHT22;56850;51.984;5.088;2023-02-01T03:39:05;7.80;69.30
69628;DHT22;56850;51.984;5.088;2023-02-01T03:44:18;7.70;69.20
69628;DHT22;56850;51.984;5.088;2023-02-01T03:46:54;7.70;69.20
69628;DHT22;56850;51.984;5.088;2023-02-01T03:49:49;7.70;69.30
69628;DHT22;56850;51.984;5.088;2023-02-01T03:52:22;7.70;69.30
69628;DHT22;56850;51.984;5.088;2023-02-01T03:54:52;7.70;69.30
69628;DHT22;56850;51.984;5.088;2023-02-01T03:57:23;7.70;69.30
69628;DHT22;56850;51.984;5.088;2023-02-01T03:59:52;7.70;69.30
69628;DHT22;56850;51.984;5.088;2023-02-01T04:02:19;7.60;69.50
69628;DHT22;56850;51.984;5.088;2023-02-01T04:04:46;7.60;69.60
69628;DHT22;56850;51.984;5.088;2023-02-01T04:07:16;7.60;69.80
69628;DHT22;56850;51.984;5.088;2023-02-01T04:09:43;7.60;69.80
69628;DHT22;56850;51.984;5.088;2023-02-01T04:12:10;7.70;69.90
69628;DHT22;56850;51.984;5.088;2023-02-01T04:14:37;7.70;69.90
69628;DHT22;56850;51.984;5.088;2023-02-01T04:17:04;7.70;70.00
69628;DHT22;56850;51.984;5.088;2023-02-01T04:19:30;7.70;69.90
69628;DHT22;56850;51.984;5.088;2023-02-01T04:21:57;7.70;69.90
69628;DHT22;56850;51.984;5.088;2023-02-01T04:24:24;7.70;69.80
69628;DHT22;56850;51.984;5.088;2023-02-01T04:26:51;7.70;69.80
69628;DHT22;56850;51.984;5.088;2023-02-01T04:29:18;7.70;69.80
69628;DHT22;56850;51.984;5.088;2023-02-01T04:31:44;7.70;69.80
69628;DHT22;56850;51.984;5.088;2023-02-01T04:34:13;7.70;69.70
69628;DHT22;56850;51.984;5.088;2023-02-01T04:36:40;7.70;69.70
69628;DHT22;56850;51.984;5.088;2023-02-01T04:39:09;7.70;69.70
69628;DHT22;56850;51.984;5.088;2023-02-01T04:41:36;7.70;69.70
69628;DHT22;56850;51.984;5.088;2023-02-01T04:44:03;7.70;69.70
69628;DHT22;56850;51.984;5.088;2023-02-01T04:46:30;7.70;69.80
69628;DHT22;56850;51.984;5.088;2023-02-01T04:48:57;7.70;69.60
69628;DHT22;56850;51.984;5.088;2023-02-01T04:51:24;7.70;69.70
69628;DHT22;56850;51.984;5.088;2023-02-01T04:53:50;7.80;69.60
69628;DHT22;56850;51.984;5.088;2023-02-01T04:56:17;7.80;69.60
69628;DHT22;56850;51.984;5.088;2023-02-01T04:58:44;7.80;69.50
69628;DHT22;56850;51.984;5.088;2023-02-01T05:01:11;7.80;69.50
69628;DHT22;56850;51.984;5.088;2023-02-01T05:03:38;7.80;69.40
69628;DHT22;56850;51.984;5.088;2023-02-01T05:06:05;7.80;69.50
69628;DHT22;56850;51.984;5.088;2023-02-01T05:08:32;7.80;69.40
69628;DHT22;56850;51.984;5.088;2023-02-01T05:10:59;7.70;69.50
69628;DHT22;56850;51.984;5.088;2023-02-01T05:13:29;7.70;69.50
69628;DHT22;56850;51.984;5.088;2023-02-01T05:16:15;7.70;69.50
69628;DHT22;56850;51.984;5.088;2023-02-01T05:18:42;7.60;69.50
69628;DHT22;56850;51.984;5.088;2023-02-01T05:21:09;7.60;69.60
69628;DHT22;56850;51.984;5.088;2023-02-01T05:23:36;7.60;69.60
69628;DHT22;56850;51.984;5.088;2023-02-01T05:26:23;7.60;69.70
69628;DHT22;56850;51.984;5.088;2023-02-01T05:28:50;7.60;69.80
69628;DHT22;56850;51.984;5.088;2023-02-01T05:31:17;7.60;69.80
69628;DHT22;56850;51.984;5.088;2023-02-01T05:33:44;7.60;69.90
69628;DHT22;56850;51.984;5.088;2023-02-01T05:36:11;7.60;69.90
69628;DHT22;56850;51.984;5.088;2023-02-01T05:38:38;7.60;69.80
69628;DHT22;56850;51.984;5.088;2023-02-01T05:41:05;7.60;69.80
69628;DHT22;56850;51.984;5.088;2023-02-01T05:43:32;7.60;69.80
69628;DHT22;56850;51.984;5.088;2023-02-01T05:45:59;7.60;69.80
69628;DHT22;56850;51.984;5.088;2023-02-01T05:48:26;7.60;69.80
69628;DHT22;56850;51.984;5.088;2023-02-01T05:50:53;7.60;69.80
69628;DHT22;56850;51.984;5.088;2023-02-01T05:53:19;7.60;69.90
69628;DHT22;56850;51.984;5.088;2023-02-01T05:55:46;7.60;69.90
69628;DHT22;56850;51.984;5.088;2023-02-01T05:58:13;7.60;69.90
69628;DHT22;56850;51.984;5.088;2023-02-01T06:00:40;7.60;69.90
69628;DHT22;56850;51.984;5.088;2023-02-01T06:03:07;7.60;70.00
69628;DHT22;56850;51.984;5.088;2023-02-01T06:05:34;7.50;70.10
69628;DHT22;56850;51.984;5.088;2023-02-01T06:08:02;7.60;70.20
69628;DHT22;56850;51.984;5.088;2023-02-01T06:10:28;7.60;70.10
69628;DHT22;56850;51.984;5.088;2023-02-01T06:12:55;7.60;70.20
69628;DHT22;56850;51.984;5.088;2023-02-01T06:15:22;7.60;70.20
69628;DHT22;56850;51.984;5.088;2023-02-01T06:17:49;7.50;70.30
69628;DHT22;56850;51.984;5.088;2023-02-01T06:20:16;7.50;70.40
69628;DHT22;56850;51.984;5.088;2023-02-01T06:22:43;7.50;70.40
69628;DHT22;56850;51.984;5.088;2023-02-01T06:25:14;7.50;70.50
69628;DHT22;56850;51.984;5.088;2023-02-01T06:27:41;7.50;70.50
69628;DHT22;56850;51.984;5.088;2023-02-01T06:30:08;7.50;70.70
69628;DHT22;56850;51.984;5.088;2023-02-01T06:32:35;7.50;70.70
69628;DHT22;56850;51.984;5.088;2023-02-01T06:35:02;7.50;70.80
69628;DHT22;56850;51.984;5.088;2023-02-01T06:37:29;7.50;70.90
69628;DHT22;56850;51.984;5.088;2023-02-01T06:39:56;7.50;70.90
69628;DHT22;56850;51.984;5.088;2023-02-01T06:42:23;7.50;70.90
69628;DHT22;56850;51.984;5.088;2023-02-01T06:44:50;7.50;70.90
69628;DHT22;56850;51.984;5.088;2023-02-01T06:47:17;7.50;71.00
69628;DHT22;56850;51.984;5.088;2023-02-01T06:49:43;7.50;71.10
69628;DHT22;56850;51.984;5.088;2023-02-01T06:52:10;7.50;71.10
69628;DHT22;56850;51.984;5.088;2023-02-01T06:54:37;7.50;71.00
69628;DHT22;56850;51.984;5.088;2023-02-01T06:57:04;7.50;71.10
69628;DHT22;56850;51.984;5.088;2023-02-01T06:59:31;7.60;71.10
69628;DHT22;56850;51.984;5.088;2023-02-01T07:01:58;7.50;71.20
69628;DHT22;56850;51.984;5.088;2023-02-01T07:04:25;7.60;71.20
69628;DHT22;56850;51.984;5.088;2023-02-01T07:06:52;7.60;71.20
69628;DHT22;56850;51.984;5.088;2023-02-01T07:09:19;7.60;71.10
69628;DHT22;56850;51.984;5.088;2023-02-01T07:11:45;7.60;71.10
69628;DHT22;56850;51.984;5.088;2023-02-01T07:14:12;7.60;71.10
69628;DHT22;56850;51.984;5.088;2023-02-01T07:16:39;7.60;71.00
69628;DHT22;56850;51.984;5.088;2023-02-01T07:19:06;7.60;71.00
69628;DHT22;56850;51.984;5.088;2023-02-01T07:21:33;7.60;71.00
69628;DHT22;56850;51.984;5.088;2023-02-01T07:24:00;7.60;70.90
69628;DHT22;56850;51.984;5.088;2023-02-01T07:26:27;7.70;70.90
69628;DHT22;56850;51.984;5.088;2023-02-01T07:28:54;7.70;70.70
69628;DHT22;56850;51.984;5.088;2023-02-01T07:31:22;7.70;70.60
69628;DHT22;56850;51.984;5.088;2023-02-01T07:33:49;7.70;70.50
69628;DHT22;56850;51.984;5.088;2023-02-01T07:36:19;7.70;70.50
69628;DHT22;56850;51.984;5.088;2023-02-01T07:38:47;7.70;70.40
69628;DHT22;56850;51.984;5.088;2023-02-01T07:41:15;7.70;70.40
69628;DHT22;56850;51.984;5.088;2023-02-01T07:43:42;7.70;70.30
69628;DHT22;56850;51.984;5.088;2023-02-01T07:46:10;7.70;70.30
69628;DHT22;56850;51.984;5.088;2023-02-01T07:48:38;7.70;70.20
69628;DHT22;56850;51.984;5.088;2023-02-01T07:51:09;7.70;70.30
69628;DHT22;56850;51.984;5.088;2023-02-01T07:53:36;7.70;70.30
69628;DHT22;56850;51.984;5.088;2023-02-01T07:56:08;7.60;70.40
69628;DHT22;56850;51.984;5.088;2023-02-01T07:58:36;7.70;70.50
69628;DHT22;56850;51.984;5.088;2023-02-01T08:01:03;7.70;70.50
69628;DHT22;56850;51.984;5.088;2023-02-01T08:06:20;7.70;70.60
69628;DHT22;56850;51.984;5.088;2023-02-01T08:08:48;7.70;70.60
69628;DHT22;56850;51.984;5.088;2023-02-01T08:11:18;7.70;70.60
69628;DHT22;56850;51.984;5.088;2023-02-01T08:13:45;7.70;70.70
69628;DHT22;56850;51.984;5.088;2023-02-01T08:16:14;7.70;70.70
69628;DHT22;56850;51.984;5.088;2023-02-01T08:18:42;7.70;70.70
69628;DHT22;56850;51.984;5.088;2023-02-01T08:21:15;7.70;70.70
69628;DHT22;56850;51.984;5.088;2023-02-01T08:23:43;7.70;70.80
69628;DHT22;56850;51.984;5.088;2023-02-01T08:26:18;7.70;70.90
69628;DHT22;56850;51.984;5.088;2023-02-01T08:28:50;7.80;70.90
69628;DHT22;56850;51.984;5.088;2023-02-01T08:31:19;7.80;71.00
69628;DHT22;56850;51.984;5.088;2023-02-01T08:33:52;7.80;71.00
69628;DHT22;56850;51.984;5.088;2023-02-01T08:36:20;7.80;71.10
69628;DHT22;56850;51.984;5.088;2023-02-01T08:38:47;7.90;71.00
69628;DHT22;56850;51.984;5.088;2023-02-01T08:41:18;8.00;70.80
69628;DHT22;56850;51.984;5.088;2023-02-01T08:43:46;8.00;70.80
69628;DHT22;56850;51.984;5.088;2023-02-01T08:46:15;8.00;70.60
69628;DHT22;56850;51.984;5.088;2023-02-01T08:48:43;8.10;70.40
69628;DHT22;56850;51.984;5.088;2023-02-01T08:51:13;8.10;70.40
69628;DHT22;56850;51.984;5.088;2023-02-01T08:53:40;8.20;70.10
69628;DHT22;56850;51.984;5.088;2023-02-01T08:56:12;8.20;70.00
69628;DHT22;56850;51.984;5.088;2023-02-01T08:58:40;8.30;70.00
69628;DHT22;56850;51.984;5.088;2023-02-01T09:01:09;8.30;69.90
69628;DHT22;56850;51.984;5.088;2023-02-01T09:03:36;8.30;69.70
69628;DHT22;56850;51.984;5.088;2023-02-01T09:06:06;8.30;69.60
69628;DHT22;56850;51.984;5.088;2023-02-01T09:08:33;8.30;69.70
69628;DHT22;56850;51.984;5.088;2023-02-01T09:11:07;8.40;69.60
69628;DHT22;56850;51.984;5.088;2023-02-01T09:13:35;8.40;69.60
69628;DHT22;56850;51.984;5.088;2023-02-01T09:16:03;8.40;69.50
69628;DHT22;56850;51.984;5.088;2023-02-01T09:18:30;8.40;69.50
69628;DHT22;56850;51.984;5.088;2023-02-01T09:20:57;8.50;69.40
69628;DHT22;56850;51.984;5.088;2023-02-01T09:23:24;8.50;69.20
69628;DHT22;56850;51.984;5.088;2023-02-01T09:25:51;8.50;68.90
69628;DHT22;56850;51.984;5.088;2023-02-01T09:28:19;8.50;69.10
69628;DHT22;56850;51.984;5.088;2023-02-01T09:30:46;8.60;69.00
69628;DHT22;56850;51.984;5.088;2023-02-01T09:33:13;8.70;68.90
69628;DHT22;56850;51.984;5.088;2023-02-01T09:35:40;8.80;68.80
69628;DHT22;56850;51.984;5.088;2023-02-01T09:38:07;8.80;68.60
69628;DHT22;56850;51.984;5.088;2023-02-01T09:40:35;8.80;68.60
69628;DHT22;56850;51.984;5.088;2023-02-01T09:43:23;8.80;68.40
69628;DHT22;56850;51.984;5.088;2023-02-01T09:48:44;8.70;68.90
69628;DHT22;56850;51.984;5.088;2023-02-01T09:51:19;8.70;69.10
69628;DHT22;56850;51.984;5.088;2023-02-01T09:54:00;8.70;69.10
69628;DHT22;56850;51.984;5.088;2023-02-01T09:56:36;8.70;69.10
69628;DHT22;56850;51.984;5.088;2023-02-01T10:01:48;8.70;69.10
69628;DHT22;56850;51.984;5.088;2023-02-01T10:04:17;8.70;69.00
69628;DHT22;56850;51.984;5.088;2023-02-01T10:21:02;8.60;68.70
69628;DHT22;56850;51.984;5.088;2023-02-01T10:26:25;8.60;68.90
69628;DHT22;56850;51.984;5.088;2023-02-01T10:28:59;8.60;69.00
69628;DHT22;56850;51.984;5.088;2023-02-01T10:31:30;8.50;68.80
69628;DHT22;56850;51.984;5.088;2023-02-01T10:34:01;8.50;68.70
69628;DHT22;56850;51.984;5.088;2023-02-01T10:36:39;8.50;68.80
69628;DHT22;56850;51.984;5.088;2023-02-01T10:39:10;8.60;68.80
69628;DHT22;56850;51.984;5.088;2023-02-01T10:41:39;8.60;68.70
69628;DHT22;56850;51.984;5.088;2023-02-01T10:44:27;8.60;68.90
69628;DHT22;56850;51.984;5.088;2023-02-01T10:46:55;8.60;68.50
69628;DHT22;56850;51.984;5.088;2023-02-01T10:52:17;8.70;68.50
69628;DHT22;56850;51.984;5.088;2023-02-01T10:54:46;8.70;68.50
69628;DHT22;56850;51.984;5.088;2023-02-01T10:57:26;8.70;68.30
69628;DHT22;56850;51.984;5.088;2023-02-01T10:59:56;8.80;68.30
69628;DHT22;56850;51.984;5.088;2023-02-01T11:02:31;8.80;68.20
69628;DHT22;56850;51.984;5.088;2023-02-01T11:05:08;8.80;67.90
69628;DHT22;56850;51.984;5.088;2023-02-01T11:07:37;8.80;68.10
69628;DHT22;56850;51.984;5.088;2023-02-01T11:10:06;8.80;68.10
69628;DHT22;56850;51.984;5.088;2023-02-01T11:12:35;8.80;68.10
69628;DHT22;56850;51.984;5.088;2023-02-01T11:15:18;8.80;68.20
69628;DHT22;56850;51.984;5.088;2023-02-01T11:17:48;8.90;68.20
69628;DHT22;56850;51.984;5.088;2023-02-01T11:20:33;8.90;68.30
69628;DHT22;56850;51.984;5.088;2023-02-01T11:23:01;8.90;68.00
69628;DHT22;56850;51.984;5.088;2023-02-01T11:25:31;8.90;67.80
69628;DHT22;56850;51.984;5.088;2023-02-01T11:27:59;8.90;68.40
69628;DHT22;56850;51.984;5.088;2023-02-01T11:30:33;8.90;69.20
69628;DHT22;56850;51.984;5.088;2023-02-01T11:33:03;8.80;69.40
69628;DHT22;56850;51.984;5.088;2023-02-01T11:35:37;8.80;69.60
69628;DHT22;56850;51.984;5.088;2023-02-01T11:38:21;8.80;69.50
69628;DHT22;56850;51.984;5.088;2023-02-01T11:40:48;8.80;69.70
69628;DHT22;56850;51.984;5.088;2023-02-01T11:45:57;8.70;69.40
69628;DHT22;56850;51.984;5.088;2023-02-01T11:48:26;8.70;69.30
69628;DHT22;56850;51.984;5.088;2023-02-01T11:59:28;8.80;69.40
69628;DHT22;56850;51.984;5.088;2023-02-01T12:11:18;8.90;69.00
69628;DHT22;56850;51.984;5.088;2023-02-01T12:14:09;8.90;69.20
69628;DHT22;56850;51.984;5.088;2023-02-01T12:40:00;9.50;67.90
69628;DHT22;56850;51.984;5.088;2023-02-01T12:42:25;9.50;67.90
69628;DHT22;56850;51.984;5.088;2023-02-01T12:44:55;9.50;67.70
69628;DHT22;56850;51.984;5.088;2023-02-01T12:47:30;9.50;67.70
69628;DHT22;56850;51.984;5.088;2023-02-01T12:53:12;9.40;67.30
69628;DHT22;56850;51.984;5.088;2023-02-01T12:55:56;9.40;67.30
69628;DHT22;56850;51.984;5.088;2023-02-01T12:58:42;9.50;67.50
69628;DHT22;56850;51.984;5.088;2023-02-01T13:04:05;9.70;67.70
69628;DHT22;56850;51.984;5.088;2023-02-01T13:06:43;9.70;67.00
69628;DHT22;56850;51.984;5.088;2023-02-01T13:11:48;9.70;66.80
69628;DHT22;56850;51.984;5.088;2023-02-01T13:14:45;9.70;66.60
69628;DHT22;56850;51.984;5.088;2023-02-01T13:17:26;9.80;66.60
69628;DHT22;56850;51.984;5.088;2023-02-01T13:22:37;9.80;66.80
69628;DHT22;56850;51.984;5.088;2023-02-01T13:25:13;9.90;66.70
69628;DHT22;56850;51.984;5.088;2023-02-01T13:27:40;9.90;66.60
69628;DHT22;56850;51.984;5.088;2023-02-01T13:47:02;9.70;66.50
69628;DHT22;56850;51.984;5.088;2023-02-01T13:49:36;9.70;66.70
69628;DHT22;56850;51.984;5.088;2023-02-01T13:52:04;9.70;66.80
69628;DHT22;56850;51.984;5.088;2023-02-01T13:54:34;9.60;66.70
69628;DHT22;56850;51.984;5.088;2023-02-01T13:57:05;9.70;66.90
69628;DHT22;56850;51.984;5.088;2023-02-01T14:24:00;9.50;67.70
69628;DHT22;56850;51.984;5.088;2023-02-01T14:32:11;9.50;67.90
69628;DHT22;56850;51.984;5.088;2023-02-01T14:40:04;9.50;68.00
69628;DHT22;56850;51.984;5.088;2023-02-01T14:47:52;9.60;67.90
69628;DHT22;56850;51.984;5.088;2023-02-01T15:00:52;9.60;68.20
69628;DHT22;56850;51.984;5.088;2023-02-01T15:05:57;9.60;68.30
69628;DHT22;56850;51.984;5.088;2023-02-01T15:08:28;9.60;68.20
69628;DHT22;56850;51.984;5.088;2023-02-01T15:10:58;9.60;68.40
69628;DHT22;56850;51.984;5.088;2023-02-01T15:13:28;9.60;68.40
69628;DHT22;56850;51.984;5.088;2023-02-01T15:18:32;9.60;68.40
69628;DHT22;56850;51.984;5.088;2023-02-01T15:21:01;9.60;68.60
69628;DHT22;56850;51.984;5.088;2023-02-01T15:23:48;9.60;68.70
69628;DHT22;56850;51.984;5.088;2023-02-01T15:36:49;9.60;68.70
69628;DHT22;56850;51.984;5.088;2023-02-01T15:39:29;9.50;69.10
69628;DHT22;56850;51.984;5.088;2023-02-01T15:42:00;9.50;69.30
69628;DHT22;56850;51.984;5.088;2023-02-01T15:44:34;9.50;69.30
69628;DHT22;56850;51.984;5.088;2023-02-01T15:47:33;9.50;69.40
69628;DHT22;56850;51.984;5.088;2023-02-01T15:50:01;9.60;69.50
69628;DHT22;56850;51.984;5.088;2023-02-01T15:52:40;9.50;69.50
69628;DHT22;56850;51.984;5.088;2023-02-01T15:57:59;9.60;69.60
69628;DHT22;56850;51.984;5.088;2023-02-01T16:00:32;9.60;69.70
69628;DHT22;56850;51.984;5.088;2023-02-01T16:03:23;9.60;69.70
69628;DHT22;56850;51.984;5.088;2023-02-01T16:05:59;9.60;69.80
69628;DHT22;56850;51.984;5.088;2023-02-01T16:08:28;9.60;69.70
69628;DHT22;56850;51.984;5.088;2023-02-01T16:11:21;9.60;69.70
69628;DHT22;56850;51.984;5.088;2023-02-01T16:13:49;9.60;69.60
69628;DHT22;56850;51.984;5.088;2023-02-01T16:16:16;9.60;69.50
69628;DHT22;56850;51.984;5.088;2023-02-01T16:18:44;9.60;69.50
69628;DHT22;56850;51.984;5.088;2023-02-01T16:21:11;9.60;69.50
69628;DHT22;56850;51.984;5.088;2023-02-01T16:23:39;9.60;69.40
69628;DHT22;56850;51.984;5.088;2023-02-01T16:26:09;9.60;69.10
69628;DHT22;56850;51.984;5.088;2023-02-01T16:28:41;9.70;69.20
69628;DHT22;56850;51.984;5.088;2023-02-01T16:31:12;9.60;69.20
69628;DHT22;56850;51.984;5.088;2023-02-01T16:33:49;9.70;69.10
69628;DHT22;56850;51.984;5.088;2023-02-01T16:36:17;9.70;69.00
69628;DHT22;56850;51.984;5.088;2023-02-01T16:38:45;9.70;68.70
69628;DHT22;56850;51.984;5.088;2023-02-01T16:41:20;9.70;68.70
69628;DHT22;56850;51.984;5.088;2023-02-01T16:43:53;9.70;68.70
69628;DHT22;56850;51.984;5.088;2023-02-01T16:46:24;9.70;68.70
69628;DHT22;56850;51.984;5.088;2023-02-01T16:48:57;9.70;68.50
69628;DHT22;56850;51.984;5.088;2023-02-01T16:51:33;9.70;68.40
69628;DHT22;56850;51.984;5.088;2023-02-01T16:54:01;9.70;68.50
69628;DHT22;56850;51.984;5.088;2023-02-01T16:56:33;9.80;68.30
69628;DHT22;56850;51.984;5.088;2023-02-01T16:59:01;9.80;68.30
69628;DHT22;56850;51.984;5.088;2023-02-01T17:01:28;9.80;68.40
69628;DHT22;56850;51.984;5.088;2023-02-01T17:03:55;9.80;68.30
69628;DHT22;56850;51.984;5.088;2023-02-01T17:06:24;9.80;68.30
69628;DHT22;56850;51.984;5.088;2023-02-01T17:08:54;9.80;68.30
69628;DHT22;56850;51.984;5.088;2023-02-01T17:11:23;9.80;68.30
69628;DHT22;56850;51.984;5.088;2023-02-01T17:13:50;9.80;68.30
69628;DHT22;56850;51.984;5.088;2023-02-01T17:16:25;9.80;68.40
69628;DHT22;56850;51.984;5.088;2023-02-01T17:18:58;9.90;68.50
69628;DHT22;56850;51.984;5.088;2023-02-01T17:21:27;9.90;68.50
69628;DHT22;56850;51.984;5.088;2023-02-01T17:23:56;9.90;68.50
69628;DHT22;56850;51.984;5.088;2023-02-01T17:26:25;9.90;68.50
69628;DHT22;56850;51.984;5.088;2023-02-01T17:28:52;9.90;68.60
69628;DHT22;56850;51.984;5.088;2023-02-01T17:31:20;9.90;68.50
69628;DHT22;56850;51.984;5.088;2023-02-01T17:33:47;9.90;68.70
69628;DHT22;56850;51.984;5.088;2023-02-01T17:36:16;9.90;68.70
69628;DHT22;56850;51.984;5.088;2023-02-01T17:38:43;9.90;68.80
69628;DHT22;56850;51.984;5.088;2023-02-01T17:41:20;9.90;68.80
69628;DHT22;56850;51.984;5.088;2023-02-01T17:43:48;9.90;68.90
69628;DHT22;56850;51.984;5.088;2023-02-01T17:46:17;9.90;69.00
69628;DHT22;56850;51.984;5.088;2023-02-01T17:48:53;9.90;69.10
69628;DHT22;56850;51.984;5.088;2023-02-01T17:51:23;9.90;69.20
69628;DHT22;56850;51.984;5.088;2023-02-01T17:53:51;9.90;69.30
69628;DHT22;56850;51.984;5.088;2023-02-01T17:56:20;9.90;69.40
69628;DHT22;56850;51.984;5.088;2023-02-01T17:58:48;9.90;69.40
69628;DHT22;56850;51.984;5.088;2023-02-01T18:01:18;9.90;69.50
69628;DHT22;56850;51.984;5.088;2023-02-01T18:03:46;9.90;69.60
69628;DHT22;56850;51.984;5.088;2023-02-01T18:06:17;9.90;69.70
69628;DHT22;56850;51.984;5.088;2023-02-01T18:08:44;9.90;69.70
69628;DHT22;56850;51.984;5.088;2023-02-01T18:11:13;9.90;69.70
69628;DHT22;56850;51.984;5.088;2023-02-01T18:13:42;9.90;69.60
69628;DHT22;56850;51.984;5.088;2023-02-01T18:16:21;9.90;69.80
69628;DHT22;56850;51.984;5.088;2023-02-01T18:18:49;9.90;69.80
69628;DHT22;56850;51.984;5.088;2023-02-01T18:21:17;9.90;69.80
69628;DHT22;56850;51.984;5.088;2023-02-01T18:23:45;9.90;69.90
69628;DHT22;56850;51.984;5.088;2023-02-01T18:26:13;9.90;69.90
69628;DHT22;56850;51.984;5.088;2023-02-01T18:28:40;9.90;70.00
69628;DHT22;56850;51.984;5.088;2023-02-01T18:31:27;9.90;69.90
69628;DHT22;56850;51.984;5.088;2023-02-01T18:33:56;9.90;69.80
69628;DHT22;56850;51.984;5.088;2023-02-01T18:36:24;9.90;69.90
69628;DHT22;56850;51.984;5.088;2023-02-01T18:38:51;9.90;69.90
69628;DHT22;56850;51.984;5.088;2023-02-01T18:41:22;9.90;69.90
69628;DHT22;56850;51.984;5.088;2023-02-01T18:43:50;9.90;70.00
69628;DHT22;56850;51.984;5.088;2023-02-01T18:46:17;9.80;70.00
69628;DHT22;56850;51.984;5.088;2023-02-01T18:48:45;9.80;70.10
69628;DHT22;56850;51.984;5.088;2023-02-01T18:51:16;9.90;70.10
69628;DHT22;56850;51.984;5.088;2023-02-01T18:53:46;9.90;70.10
69628;DHT22;56850;51.984;5.088;2023-02-01T18:56:15;9.90;70.00
69628;DHT22;56850;51.984;5.088;2023-02-01T18:58:44;9.90;70.00
69628;DHT22;56850;51.984;5.088;2023-02-01T19:01:18;9.80;70.20
69628;DHT22;56850;51.984;5.088;2023-02-01T19:03:49;9.90;70.20
69628;DHT22;56850;51.984;5.088;2023-02-01T19:06:39;9.90;70.30
69628;DHT22;56850;51.984;5.088;2023-02-01T19:09:06;9.90;70.40
69628;DHT22;56850;51.984;5.088;2023-02-01T19:11:33;9.90;70.30
69628;DHT22;56850;51.984;5.088;2023-02-01T19:14:00;9.90;70.40
69628;DHT22;56850;51.984;5.088;2023-02-01T19:16:27;9.90;70.30
69628;DHT22;56850;51.984;5.088;2023-02-01T19:18:54;9.90;70.40